San Sebastian, Spain

8:46 AM CEST on July 25, 2016 (GMT +0200)
Francia - Hendaye | | Change Station

Elev 30 ft 43.35 °N, 1.78 °W | Updated 44 minutes ago

Mostly Cloudy
Mostly Cloudy
66.6 °F
Feels Like 66.6 °F
N
0.0
Wind Variable Wind from West
Gusts 0.0 mph

Today
High -- | Low -- °F
--% Chance of Precip.
Yesterday
High -- | Low -- °F
Precip. -- in
Pressure 30.18 in
Visibility 6.2 miles
Clouds Mostly Cloudy 2500 ft
Mostly Cloudy 3300 ft
Dew Point 63 °F
Humidity 87%
Rainfall 0.00 in
Snow Depth Not available.
6:50 AM 9:36 PM
Waning Gibbous, 69% visible
METAR LESO 250630Z VRB01KT 9999 BKN025 BKN033 19/19 Q1022
Pressure 30.18 in
Visibility 6.2 miles
Clouds Mostly Cloudy 2500 ft
Mostly Cloudy 3300 ft
Dew Point 63 °F
Humidity 87%
Rainfall 0.00 in
Snow Depth Not available.
6:50 AM 9:36 PM
Waning Gibbous, 69% visible
METAR LESO 250630Z VRB01KT 9999 BKN025 BKN033 19/19 Q1022

10-Day Weather Forecast

×

Almanac

Astronomy

Jul. 25, 2016 Rise Set
Actual Time
Civil Twilight
Nautical Twilight
Astronomical Twilight
Moon
Length of Visible Light
Length of Day
Tomorrow will be .
, % of the Moon is Illuminated

Today's Extremes

Country Highs Country Lows

Community

WunderPhotos

Upload Photos

1,927,275 photos uploaded!

WunderBlog® & News

Nearby

Air Quality

  Air Quality AQ Index Pollutant
Not available.

Snow Depth

Station Depth Elevation

Earthquake Activity

City Distance Mag. Time & Date
Minimum magnitude displayed is 2.5.

Coastal Water Temperatures

Place Temperature

Stations

Nearby Weather Stations

Station Location Temp. Windchill Dew Point Humidity Wind Precip. Elev Updated Type